Terminal Aerodrome Forecast
Issued by NWS

Home | Current Version | Previous Version | Text Only | Print | Product List | Glossary Off
Versions: 1 2 3 4 5 6 7 8 9 10 11 12 13 14

121
FTUS45 KRIW 170538
TAFBPI
TAF
KBPI 170538Z 1706/1806 VRB04KT P6SM VCFG SKC
     FM171300 VRB03KT 3/4SM BR VV003
     FM171800 VRB03KT P6SM VCFG SCT005
     FM172000 VRB03KT P6SM SKC=

USA.gov is the U.S. government's official web portal to all federal, state and local government web resources and services.